Bookmark and Share
Track history (hours):
 

Adventure of The Seas

Operator: Royal Caribbean Cruises Ltd

Last reported at 2014-Apr-21 00:33 UTC. Time now 2014-Apr-21 07:12 UTC.
Position N 26°05' W 079°25'.

Type: Passenger vessel. MMSI: 311263000.

NotesDate/timePositionNaut miles runAvg speedWind from/ knotsBaromVisibWave heightAir tempDewpointWater temp
2014-Apr-21 00:33N 26°05' W 079°25'1514.5
2014-Apr-20 23:33N 25°59' W 079°40'1515.3
2014-Apr-20 22:33N 25°52' W 079°55'1313.0
2014-Apr-20 21:33N 25°46' W 080°07'3 3.0
2014-Apr-20 20:28N 25°47' W 080°11'0 0.0
2014-Apr-20 19:31N 25°47' W 080°11'0 0.0
2014-Apr-20 18:28N 25°47' W 080°11'0 0.0
2014-Apr-20 17:31N 25°47' W 080°11'0 0.0
2014-Apr-20 16:31N 25°47' W 080°11'0 0.0
2014-Apr-20 15:31N 25°47' W 080°11'0 0.0
2014-Apr-20 14:31N 25°47' W 080°11'0 0.0
2014-Apr-20 13:31N 25°47' W 080°11'0 0.0
2014-Apr-20 12:31N 25°47' W 080°11'0 0.0
2014-Apr-20 11:31N 25°47' W 080°11'0 0.0
2014-Apr-20 10:31N 25°47' W 080°11'0 0.0
2014-Apr-20 09:28N 25°47' W 080°11'1 1.3
2014-Apr-20 08:33N 25°46' W 080°09'1010.1
2014-Apr-20 07:33N 25°43' W 079°59'  
2014-Apr-17 22:21N 19°06' W 067°38'2022.0
2014-Apr-17 21:28N 18°59' W 067°18'2021.7
2014-Apr-17 20:33N 18°51' W 066°59'2221.9
2014-Apr-17 19:33N 18°43' W 066°38'182 9.1
2014-Apr-16 23:33N 18°03' W 063°31'1616.1
2014-Apr-16 22:32N 18°01' W 063°14'10 0.9
2014-Apr-16 11:24N 18°00' W 063°03'1010.7
2014-Apr-16 10:31N 18°04' W 063°13'1313.5
2014-Apr-16 09:32N 18°14' W 063°22'  
2014-Apr-13 22:33N 25°52' W 079°52'1514.8
2014-Apr-13 21:34N 25°45' W 080°07'4 3.7
2014-Apr-13 20:32N 25°47' W 080°11'0 0.0
2014-Apr-13 19:32N 25°47' W 080°11'0 0.0
2014-Apr-13 18:32N 25°47' W 080°11'0 0.0
2014-Apr-13 17:32N 25°47' W 080°11'0 0.0
2014-Apr-13 16:32N 25°47' W 080°11'0 0.0
2014-Apr-13 15:32N 25°47' W 080°11'0 0.0
2014-Apr-13 14:32N 25°47' W 080°11'0 0.0
2014-Apr-13 13:32N 25°47' W 080°11'0 0.0
2014-Apr-13 12:32N 25°47' W 080°11'0 0.0
2014-Apr-13 11:32N 25°47' W 080°11'0 0.0
2014-Apr-13 10:32N 25°47' W 080°11'0 0.0
2014-Apr-13 09:32N 25°47' W 080°11'3 3.5
2014-Apr-13 08:34N 25°45' W 080°07'9 8.7
2014-Apr-13 07:34N 25°49' W 079°58'1413.8
2014-Apr-13 06:33N 25°57' W 079°45'1313.4
2014-Apr-13 05:33N 26°03' W 079°32'  

Dump ship's entire track history

sailing weather and tide predictions

Adventure of The Seas — C6SA3 — position and weather